Time;durP1;ratioP1;P1;durP2;ratioP2;P2;SDS_P1;SDS_P2;PMS_P1;PMS_P2;Temp;Humidity;BMP_temperature;BMP_pressure;BME280_temperature;BME280_humidity;BME280_pressure;Samples;Min_cycle;Max_cycle;Signal;HPM_P1;HPM_P2
2022/04/29 00:00:18;;;;;;;7.53;3.47;;;;;;;19.17;44.68;103243.44;5084684;28;20069;-42
2022/04/29 00:02:46;;;;;;;7.57;3.72;;;;;;;19.17;44.44;103235.34;5082929;28;20072;-42
2022/04/29 00:05:14;;;;;;;7.95;3.30;;;;;;;19.13;44.41;103234.69;5080359;28;20036;-44
2022/04/29 00:07:41;;;;;;;7.97;3.78;;;;;;;19.13;44.53;103240.06;5081879;28;20652;-42
2022/04/29 00:10:13;;;;;;;8.82;3.67;;;;;;;19.11;44.49;103227.72;5087118;28;20124;-42
2022/04/29 00:12:43;;;;;;;7.00;3.47;;;;;;;19.10;44.80;103236.75;5080184;28;20050;-42
2022/04/29 00:15:11;;;;;;;8.95;3.90;;;;;;;19.08;44.63;103238.69;5082974;28;20122;-42
2022/04/29 00:17:39;;;;;;;6.57;3.50;;;;;;;19.07;44.68;103235.13;5084433;28;20080;-43
2022/04/29 00:20:08;;;;;;;7.53;3.97;;;;;;;19.05;44.27;103226.28;5084459;28;20052;-41
2022/04/29 00:22:36;;;;;;;7.88;4.25;;;;;;;19.05;44.90;103228.97;5084219;28;20454;-42
2022/04/29 00:25:04;;;;;;;5.05;3.10;;;;;;;19.03;44.63;103233.59;5085534;28;20044;-42
2022/04/29 00:27:30;;;;;;;5.72;3.15;;;;;;;19.02;44.30;103231.03;5083713;28;20050;-41
2022/04/29 00:29:57;;;;;;;6.95;3.08;;;;;;;19.01;44.71;103227.47;5082407;28;20177;-43
2022/04/29 00:32:24;;;;;;;5.05;3.33;;;;;;;18.99;45.00;103224.03;5085866;28;20063;-43
2022/04/29 00:34:51;;;;;;;4.55;3.03;;;;;;;18.98;44.82;103225.00;5082573;28;20036;-42
2022/04/29 00:37:18;;;;;;;7.18;3.50;;;;;;;18.95;44.65;103212.63;5085666;28;20138;-42
2022/04/29 00:39:45;;;;;;;9.80;3.50;;;;;;;18.96;44.58;103208.94;5084285;28;20068;-42
2022/04/29 00:42:17;;;;;;;6.68;3.35;;;;;;;18.94;44.89;103210.03;5083681;28;20048;-42
2022/04/29 00:44:45;;;;;;;5.72;3.35;;;;;;;18.93;44.91;103210.97;5082492;28;20064;-42
2022/04/29 00:47:16;;;;;;;5.50;3.10;;;;;;;18.93;45.18;103208.28;5083453;28;20126;-41
2022/04/29 00:49:43;;;;;;;5.18;3.30;;;;;;;18.91;45.19;103203.03;5082022;28;20135;-41
2022/04/29 00:52:13;;;;;;;7.05;3.38;;;;;;;18.90;45.53;103211.22;5082845;28;20062;-43
2022/04/29 00:54:48;;;;;;;5.75;3.10;;;;;;;18.89;44.80;103199.56;5081258;28;20058;-43
2022/04/29 00:57:22;;;;;;;8.80;3.28;;;;;;;18.88;44.80;103187.09;5083538;28;20046;-42
2022/04/29 01:00:06;;;;;;;5.88;3.28;;;;;;;18.87;44.71;103196.13;5085703;28;20051;-43
2022/04/29 01:02:37;;;;;;;5.43;3.00;;;;;;;18.88;44.89;103191.63;5081798;28;20052;-42
2022/04/29 01:05:06;;;;;;;7.55;3.40;;;;;;;18.86;45.02;103185.50;5080029;28;20032;-43
2022/04/29 01:07:34;;;;;;;6.35;3.60;;;;;;;18.86;45.09;103193.56;5087012;28;20138;-42
2022/04/29 01:10:01;;;;;;;8.15;3.55;;;;;;;18.83;44.95;103189.25;5085060;28;20052;-43
2022/04/29 01:12:33;;;;;;;6.25;3.08;;;;;;;18.83;44.90;103191.06;5085714;28;20040;-42
2022/04/29 01:15:06;;;;;;;5.63;3.30;;;;;;;18.83;45.26;103196.44;5082320;28;20048;-42
2022/04/29 01:17:34;;;;;;;6.65;3.13;;;;;;;18.81;45.14;103188.47;5080783;28;20054;-42
2022/04/29 01:20:03;;;;;;;6.25;2.95;;;;;;;18.80;45.05;103191.28;5083189;28;20048;-42
2022/04/29 01:22:31;;;;;;;5.30;2.95;;;;;;;18.79;45.46;103186.88;5086244;28;20135;-41
2022/04/29 01:24:58;;;;;;;6.10;2.67;;;;;;;18.78;45.11;103187.84;5081383;28;20175;-42
2022/04/29 01:27:24;;;;;;;5.32;2.80;;;;;;;18.78;45.08;103180.63;5084240;28;20050;-43
2022/04/29 01:30:01;;;;;;;6.38;2.70;;;;;;;18.77;45.33;103180.72;5085936;28;20134;-43
2022/04/29 01:32:31;;;;;;;5.47;2.78;;;;;;;18.77;45.39;103172.66;5079744;28;20044;-42
2022/04/29 01:34:57;;;;;;;4.03;2.47;;;;;;;18.75;45.38;103170.09;5081020;28;20068;-42
2022/04/29 01:37:24;;;;;;;6.57;2.75;;;;;;;18.74;45.19;103168.38;5083742;28;20056;-42
2022/04/29 01:39:51;;;;;;;5.47;2.70;;;;;;;18.72;45.70;103164.91;5083038;28;20311;-41
2022/04/29 01:42:17;;;;;;;8.70;2.97;;;;;;;18.71;45.38;103163.19;5080378;28;20039;-42
2022/04/29 01:44:49;;;;;;;7.03;2.67;;;;;;;18.71;45.52;103163.19;5080497;28;20445;-42
2022/04/29 01:47:16;;;;;;;6.00;2.58;;;;;;;18.70;45.46;103159.66;5085115;28;20040;-41
2022/04/29 01:49:42;;;;;;;5.30;2.95;;;;;;;18.69;45.67;103168.66;5078230;28;20463;-42
2022/04/29 01:52:09;;;;;;;6.50;3.03;;;;;;;18.70;45.76;103166.84;5087418;28;20102;-42
2022/04/29 01:54:36;;;;;;;8.45;2.63;;;;;;;18.68;45.70;103169.59;5088664;28;20036;-42
2022/04/29 01:57:04;;;;;;;5.50;2.67;;;;;;;18.69;45.48;103165.97;5082530;28;20052;-41
2022/04/29 01:59:31;;;;;;;6.65;3.03;;;;;;;18.68;45.43;103168.72;5083614;28;20891;-42
2022/04/29 02:01:58;;;;;;;5.63;2.60;;;;;;;18.67;45.79;103165.19;5080754;28;20054;-41
2022/04/29 02:04:25;;;;;;;4.30;2.63;;;;;;;18.66;45.73;103176.91;5081200;28;20295;-42
2022/04/29 02:06:52;;;;;;;4.13;2.65;;;;;;;18.64;45.50;103170.75;5080611;28;20039;-42
2022/04/29 02:09:18;;;;;;;5.50;2.92;;;;;;;18.65;45.46;103177.88;5080886;28;20533;-41
2022/04/29 02:14:39;;;;;;;8.07;2.45;;;;;;;18.63;45.81;103173.56;5080961;28;20354;-42
2022/04/29 02:17:07;;;;;;;4.72;2.45;;;;;;;18.61;45.55;103165.56;5082007;28;20394;-42
2022/04/29 02:19:35;;;;;;;4.65;2.50;;;;;;;18.63;45.62;103178.91;5085180;28;20403;-41
2022/04/29 02:22:05;;;;;;;5.68;2.75;;;;;;;18.60;45.39;103171.06;5083581;28;20930;-41
2022/04/29 02:24:32;;;;;;;5.32;2.72;;;;;;;18.61;45.91;103181.69;5080953;28;20048;-42
2022/04/29 02:27:02;;;;;;;5.88;2.42;;;;;;;18.61;45.93;103172.78;5082147;28;20405;-42
2022/04/29 02:29:29;;;;;;;5.13;2.55;;;;;;;18.59;45.71;103164.81;5082327;28;20441;-42
2022/04/29 02:31:57;;;;;;;5.15;2.45;;;;;;;18.58;45.94;103152.38;5079109;28;20467;-42
2022/04/29 02:34:24;;;;;;;4.93;2.50;;;;;;;18.59;45.84;103146.03;5083258;28;20060;-42
2022/04/29 02:36:50;;;;;;;4.78;2.15;;;;;;;18.58;45.77;103155.06;5081780;28;20055;-41
2022/04/29 02:39:17;;;;;;;4.55;2.60;;;;;;;18.58;46.12;103151.50;5083052;28;20047;-42
2022/04/29 02:41:44;;;;;;;8.40;2.65;;;;;;;18.58;45.41;103147.00;5079809;28;20339;-41
2022/04/29 02:44:11;;;;;;;3.42;2.03;;;;;;;18.57;45.82;103149.75;5081480;28;20301;-41
2022/04/29 02:49:24;;;;;;;7.00;2.20;;;;;;;18.55;45.45;103141.81;5083876;28;20109;-42
2022/04/29 02:51:50;;;;;;;3.45;2.05;;;;;;;18.53;45.56;103141.03;5081535;28;20322;-42
2022/04/29 02:54:17;;;;;;;6.07;2.30;;;;;;;18.54;45.97;103142.78;5085103;28;20047;-41
2022/04/29 02:56:43;;;;;;;5.63;2.42;;;;;;;18.54;45.84;103148.16;5080094;28;20117;-41
2022/04/29 02:59:10;;;;;;;5.00;2.38;;;;;;;18.54;46.24;103147.31;5081557;28;20051;-41
2022/04/29 03:01:36;;;;;;;4.55;2.30;;;;;;;18.54;45.96;103150.00;5080288;28;20050;-42
2022/04/29 03:04:03;;;;;;;6.10;2.42;;;;;;;18.53;45.96;103145.56;5082748;28;20135;-41
2022/04/29 03:06:30;;;;;;;6.47;2.30;;;;;;;18.52;46.17;103142.00;5084313;28;20090;-42
2022/04/29 03:08:56;;;;;;;4.68;2.22;;;;;;;18.50;46.39;103144.81;5081841;28;20135;-42
2022/04/29 03:11:24;;;;;;;3.22;1.90;;;;;;;18.51;46.01;103137.63;5083697;28;20094;-42
2022/04/29 03:13:50;;;;;;;2.83;2.05;;;;;;;18.50;46.41;103138.59;5082290;28;20129;-42
2022/04/29 03:16:17;;;;;;;3.55;1.80;;;;;;;18.49;46.08;103136.84;5080464;28;20056;-43
2022/04/29 03:18:44;;;;;;;4.32;1.92;;;;;;;18.48;45.80;103135.13;5079724;28;20484;-41
2022/04/29 03:21:11;;;;;;;3.53;2.17;;;;;;;18.49;46.38;103139.53;5083814;28;20122;-42
2022/04/29 03:23:37;;;;;;;3.67;1.98;;;;;;;18.46;45.75;103137.91;5080986;28;20052;-41
2022/04/29 03:26:05;;;;;;;3.97;2.20;;;;;;;18.46;46.31;103145.13;5080095;28;20056;-41
2022/04/29 03:28:32;;;;;;;2.92;1.98;;;;;;;18.45;45.99;103132.63;5082158;28;20036;-41
2022/04/29 03:30:59;;;;;;;4.55;2.22;;;;;;;18.44;45.80;103130.91;5081623;28;20047;-41
2022/04/29 03:33:26;;;;;;;3.65;2.10;;;;;;;18.43;46.08;103131.88;5080561;28;20079;-42
2022/04/29 03:35:55;;;;;;;3.70;1.80;;;;;;;18.45;46.25;103138.00;5081374;28;20043;-42
2022/04/29 03:38:23;;;;;;;5.88;2.50;;;;;;;18.43;46.58;103127.38;5084480;28;20047;-41
2022/04/29 03:40:50;;;;;;;3.20;1.92;;;;;;;18.43;46.41;103126.50;5083571;28;20051;-41
2022/04/29 03:43:17;;;;;;;3.85;1.85;;;;;;;18.42;45.98;103122.13;5083819;28;20036;-41
2022/04/29 03:45:44;;;;;;;4.38;2.13;;;;;;;18.41;46.11;103120.38;5085442;28;20326;-41
2022/04/29 03:48:11;;;;;;;4.43;2.30;;;;;;;18.41;46.42;103115.88;5084258;28;20438;-42
2022/04/29 03:50:38;;;;;;;4.80;1.95;;;;;;;18.40;46.33;103115.97;5082633;28;20056;-41
2022/04/29 03:53:06;;;;;;;5.63;2.08;;;;;;;18.40;46.25;103126.72;5086777;28;20445;-41
2022/04/29 03:55:34;;;;;;;5.18;1.98;;;;;;;18.39;46.61;103119.63;5087006;28;20149;-41
2022/04/29 03:58:02;;;;;;;3.22;1.88;;;;;;;18.39;46.63;103116.94;5085098;28;20062;-42
2022/04/29 04:00:33;;;;;;;8.20;2.15;;;;;;;18.37;46.72;103111.69;5084897;28;20068;-42
2022/04/29 04:03:05;;;;;;;6.75;2.20;;;;;;;18.37;46.73;103121.53;5084722;28;20445;-42
2022/04/29 04:05:33;;;;;;;12.55;2.35;;;;;;;18.39;46.74;103125.00;5086001;28;20040;-42
2022/04/29 04:07:59;;;;;;;10.98;2.67;;;;;;;18.37;46.86;103116.16;5085026;28;20069;-42
2022/04/29 04:10:26;;;;;;;13.93;3.17;;;;;;;18.37;46.61;103118.84;5085342;28;20052;-41
2022/04/29 04:12:53;;;;;;;7.32;2.42;;;;;;;18.36;46.63;103122.50;5090397;28;20142;-42
2022/04/29 04:15:20;;;;;;;10.60;2.70;;;;;;;18.36;46.55;103125.19;5086286;28;20127;-42
2022/04/29 04:17:47;;;;;;;6.47;2.70;;;;;;;18.34;46.65;103117.25;5084712;28;20044;-42
2022/04/29 04:20:15;;;;;;;12.20;3.00;;;;;;;18.35;46.70;103120.78;5084143;28;20078;-41
2022/04/29 04:22:42;;;;;;;9.68;3.00;;;;;;;18.34;46.62;103108.31;5087396;28;20386;-42
2022/04/29 04:25:11;;;;;;;10.38;3.30;;;;;;;18.33;46.21;103111.94;5089430;28;20044;-42
2022/04/29 04:27:39;;;;;;;9.07;4.00;;;;;;;18.31;46.37;103112.06;5086014;28;20433;-42
2022/04/29 04:30:07;;;;;;;9.80;3.92;;;;;;;18.32;46.62;103119.16;5091361;28;20338;-42
2022/04/29 04:32:37;;;;;;;11.23;4.40;;;;;;;18.30;46.12;103104.13;5090538;28;20062;-43
2022/04/29 04:35:06;;;;;;;16.08;4.53;;;;;;;18.29;46.26;103115.81;5086439;28;20088;-41
2022/04/29 04:37:33;;;;;;;11.60;4.70;;;;;;;18.29;46.24;103110.44;5088034;28;20127;-41
2022/04/29 04:40:02;;;;;;;12.73;5.60;;;;;;;18.28;46.24;103111.41;5088896;28;20048;-42
2022/04/29 04:42:29;;;;;;;10.68;4.50;;;;;;;18.28;46.63;103114.09;5088819;28;20102;-42
2022/04/29 04:44:56;;;;;;;14.15;5.93;;;;;;;18.25;46.36;103110.66;5088390;28;20048;-41
2022/04/29 04:47:23;;;;;;;14.23;6.03;;;;;;;18.25;46.53;103107.06;5090205;28;20050;-43
2022/04/29 04:49:49;;;;;;;13.13;6.38;;;;;;;18.23;46.36;103112.56;5086469;28;20080;-41
2022/04/29 04:52:16;;;;;;;16.77;5.85;;;;;;;18.22;46.59;103108.16;5087741;28;20043;-42
2022/04/29 04:54:42;;;;;;;18.27;6.72;;;;;;;18.22;46.55;103112.69;5089189;28;20058;-42
2022/04/29 04:57:09;;;;;;;16.77;6.90;;;;;;;18.20;46.61;103110.06;5091520;28;20046;-41
2022/04/29 04:59:35;;;;;;;13.82;6.35;;;;;;;18.21;46.60;103119.88;5089428;28;20044;-41
2022/04/29 05:02:02;;;;;;;15.70;7.82;;;;;;;18.21;46.29;103118.97;5087029;28;20036;-45
2022/04/29 05:04:29;;;;;;;14.23;7.22;;;;;;;18.21;46.58;103110.94;5089334;28;20755;-41
2022/04/29 05:06:56;;;;;;;15.50;7.65;;;;;;;18.21;46.22;103110.94;5086908;28;20058;-41
2022/04/29 05:09:23;;;;;;;17.17;7.82;;;;;;;18.20;46.09;103107.38;5090105;28;20040;-41
2022/04/29 05:11:49;;;;;;;14.68;7.53;;;;;;;18.20;45.91;103112.75;5086788;28;20054;-41
2022/04/29 05:14:34;;;;;;;17.17;7.45;;;;;;;18.21;46.06;103110.94;5088177;28;20385;-42
2022/04/29 05:17:00;;;;;;;15.93;8.02;;;;;;;18.20;45.94;103110.06;5090789;28;20644;-42
2022/04/29 05:19:27;;;;;;;16.60;7.53;;;;;;;18.19;46.72;103115.56;5085486;28;20055;-42
2022/04/29 05:21:53;;;;;;;15.95;7.60;;;;;;;18.18;46.38;103114.69;5085269;28;20055;-42
2022/04/29 05:24:20;;;;;;;19.70;7.57;;;;;;;18.21;46.07;103113.59;5088952;28;20048;-42
2022/04/29 05:26:53;;;;;;;14.47;7.67;;;;;;;18.20;46.19;103120.81;5078526;28;20477;-42
2022/04/29 05:29:19;;;;;;;15.90;8.60;;;;;;;18.20;45.51;103122.63;5079071;28;20581;-42
2022/04/29 05:31:46;;;;;;;19.65;8.40;;;;;;;18.20;46.23;103120.81;5087287;28;20049;-42
2022/04/29 05:34:14;;;;;;;14.77;8.05;;;;;;;18.20;46.20;103120.81;5086762;28;20048;-42
2022/04/29 05:36:41;;;;;;;13.57;7.97;;;;;;;18.18;45.84;103119.19;5087782;28;20078;-42
2022/04/29 05:44:38;;;;;;;15.45;7.03;;;;;;;18.18;45.91;103128.09;5089430;28;20046;-42
2022/04/29 05:47:05;;;;;;;14.35;7.30;;;;;;;18.18;45.83;103128.09;5085749;28;20076;-43
2022/04/29 05:49:31;;;;;;;15.80;7.25;;;;;;;18.17;45.95;103122.81;5084217;28;20055;-41
2022/04/29 05:52:02;;;;;;;13.20;7.32;;;;;;;18.17;46.22;103125.50;5090075;28;20139;-43
2022/04/29 05:54:31;;;;;;;17.30;8.02;;;;;;;18.18;46.13;103132.63;5082044;28;20044;-41
2022/04/29 05:57:02;;;;;;;14.93;7.80;;;;;;;18.18;46.10;103143.34;5082855;28;20131;-42
2022/04/29 05:59:30;;;;;;;16.73;7.63;;;;;;;18.18;45.86;103140.66;5087573;28;20109;-41
2022/04/29 06:01:57;;;;;;;16.25;7.50;;;;;;;18.17;45.86;103139.81;5086255;28;20139;-42
2022/04/29 06:04:24;;;;;;;12.77;7.07;;;;;;;18.18;45.69;103133.47;5083090;28;20048;-42
2022/04/29 06:06:51;;;;;;;14.75;6.80;;;;;;;18.18;45.69;103130.78;5085274;28;20044;-42
2022/04/29 06:09:17;;;;;;;12.52;7.47;;;;;;;18.19;45.79;103127.16;5084723;28;20040;-42
2022/04/29 06:11:45;;;;;;;13.93;7.35;;;;;;;18.21;45.88;103133.28;5082343;28;20658;-42
2022/04/29 06:14:12;;;;;;;13.15;7.60;;;;;;;18.22;45.85;103128.78;5086013;28;20048;-41
2022/04/29 06:16:38;;;;;;;12.38;6.57;;;;;;;18.23;46.12;103134.03;5082355;28;20119;-41
2022/04/29 06:19:05;;;;;;;10.13;6.05;;;;;;;18.23;45.48;103135.88;5085676;28;20131;-41
2022/04/29 06:21:31;;;;;;;11.57;6.68;;;;;;;18.24;45.72;103140.25;5086550;28;20367;-41
2022/04/29 06:23:58;;;;;;;12.63;6.70;;;;;;;18.26;45.71;103138.34;5085503;28;20062;-41
2022/04/29 06:26:24;;;;;;;11.45;6.18;;;;;;;18.26;45.45;103141.03;5082435;28;20035;-41
2022/04/29 06:28:51;;;;;;;10.73;6.05;;;;;;;18.29;45.54;103148.91;5087064;28;20319;-41
2022/04/29 06:31:17;;;;;;;15.80;7.07;;;;;;;18.30;45.67;103141.72;5084063;28;20040;-42
2022/04/29 06:33:44;;;;;;;12.18;6.75;;;;;;;18.30;45.42;103149.75;5087795;28;20119;-42
2022/04/29 06:36:11;;;;;;;11.43;6.20;;;;;;;18.30;45.55;103147.06;5081395;28;20382;-41
2022/04/29 06:38:37;;;;;;;13.48;6.28;;;;;;;18.31;45.20;103144.28;5084715;28;20043;-41
2022/04/29 06:41:04;;;;;;;10.02;5.80;;;;;;;18.33;45.40;103153.13;5090261;28;20115;-41
2022/04/29 06:43:30;;;;;;;14.82;6.60;;;;;;;18.34;45.54;103159.34;5086233;28;20058;-42
2022/04/29 06:45:58;;;;;;;14.00;6.00;;;;;;;18.35;45.26;103148.50;5086615;28;20044;-41
2022/04/29 06:48:24;;;;;;;14.75;6.47;;;;;;;18.36;45.12;103152.03;5082216;28;20051;-42
2022/04/29 06:50:51;;;;;;;13.48;6.40;;;;;;;18.36;44.89;103160.94;5084902;28;20405;-42
2022/04/29 06:53:18;;;;;;;21.35;6.57;;;;;;;18.37;45.93;103162.69;5088271;28;20127;-43
2022/04/29 06:55:44;;;;;;;26.98;7.50;;;;;;;18.41;48.20;103164.22;5085853;28;20041;-42
2022/04/29 06:58:11;;;;;;;38.15;7.32;;;;;;;18.44;50.76;103165.81;5088632;28;20348;-42
2022/04/29 07:00:39;;;;;;;30.00;7.65;;;;;;;18.48;51.90;103157.47;5083371;28;20044;-42
2022/04/29 07:03:06;;;;;;;24.08;7.88;;;;;;;18.53;54.26;103159.84;5083079;28;20044;-42
2022/04/29 07:05:37;;;;;;;28.83;7.90;;;;;;;18.57;55.92;103171.25;5090647;28;20032;-42
2022/04/29 07:08:04;;;;;;;38.35;7.35;;;;;;;18.59;56.65;103172.03;5089328;28;20046;-40
2022/04/29 07:10:30;;;;;;;30.30;8.25;;;;;;;18.64;56.46;103172.56;5086485;28;20358;-39
2022/04/29 07:12:57;;;;;;;35.20;9.35;;;;;;;18.66;56.65;103165.28;5087878;28;20044;-39
2022/04/29 07:15:23;;;;;;;49.55;12.93;;;;;;;18.69;56.64;103159.69;5086646;28;20050;-39
2022/04/29 07:17:50;;;;;;;51.25;11.30;;;;;;;18.72;57.05;103159.53;5091190;28;20052;-39
2022/04/29 07:20:16;;;;;;;55.63;14.95;;;;;;;18.73;56.76;103170.19;5091214;28;20131;-40
2022/04/29 07:22:43;;;;;;;47.00;18.08;;;;;;;18.76;56.86;103169.13;5086894;28;20036;-40
2022/04/29 07:25:11;;;;;;;55.80;19.35;;;;;;;18.77;56.09;103173.50;5090573;28;20489;-40
2022/04/29 07:27:41;;;;;;;49.55;18.13;;;;;;;18.78;56.55;103171.72;5091871;28;20163;-40
2022/04/29 07:30:10;;;;;;;54.92;17.98;;;;;;;18.79;56.05;103170.75;5088472;28;20088;-39
2022/04/29 07:32:37;;;;;;;52.22;17.52;;;;;;;18.79;55.64;103176.13;5087305;28;20135;-40
2022/04/29 07:43:21;;;;;;;39.83;16.98;;;;;;;18.80;54.74;103167.94;5086827;28;20044;-40
2022/04/29 07:45:51;;;;;;;40.67;16.25;;;;;;;18.81;54.76;103175.03;5092302;28;20098;-40
2022/04/29 07:48:18;;;;;;;38.95;17.33;;;;;;;18.81;54.69;103166.13;5090897;28;20055;-40
2022/04/29 07:50:45;;;;;;;40.20;17.33;;;;;;;18.82;55.02;103166.03;5091679;28;20711;-40
2022/04/29 07:53:13;;;;;;;36.85;18.77;;;;;;;18.82;54.66;103166.03;5092448;28;20132;-40
2022/04/29 07:55:40;;;;;;;43.80;17.42;;;;;;;18.83;54.67;103164.19;5092806;28;20040;-40
2022/04/29 07:58:07;;;;;;;43.40;16.95;;;;;;;18.83;54.79;103154.31;5092431;28;20079;-40
2022/04/29 08:00:33;;;;;;;33.42;15.98;;;;;;;18.84;54.94;103161.41;5092412;28;20127;-40
2022/04/29 08:03:20;;;;;;;29.92;16.23;;;;;;;18.85;54.30;103162.25;5090771;28;20052;-40
2022/04/29 08:05:47;;;;;;;33.83;16.85;;;;;;;18.85;54.75;103162.25;5090690;28;20043;-40
2022/04/29 08:08:14;;;;;;;33.30;15.82;;;;;;;18.86;54.19;103162.19;5094335;28;20040;-40
2022/04/29 08:10:40;;;;;;;31.83;14.45;;;;;;;18.85;54.43;103164.94;5089895;28;20323;-40
2022/04/29 08:13:07;;;;;;;30.00;15.68;;;;;;;18.85;54.23;103164.94;5091690;28;20433;-40
2022/04/29 08:15:33;;;;;;;33.03;15.48;;;;;;;18.86;53.93;103159.50;5088085;28;20045;-40
2022/04/29 08:18:03;;;;;;;30.77;13.88;;;;;;;18.87;53.64;103163.03;5092501;28;20105;-40
2022/04/29 08:20:30;;;;;;;26.77;13.70;;;;;;;18.86;53.80;103175.63;5092711;28;20070;-40
2022/04/29 08:22:56;;;;;;;28.15;13.93;;;;;;;18.87;53.97;103173.78;5092432;28;20059;-40
2022/04/29 08:25:23;;;;;;;26.13;12.27;;;;;;;18.88;53.34;103187.09;5089686;28;20046;-40
2022/04/29 08:27:51;;;;;;;26.48;12.70;;;;;;;18.86;53.41;103172.94;5089993;28;20405;-40
2022/04/29 08:30:18;;;;;;;26.50;12.68;;;;;;;18.86;53.22;103172.06;5087685;28;20044;-40
2022/04/29 08:32:46;;;;;;;28.63;13.20;;;;;;;18.87;53.29;103181.84;5089814;28;20124;-40
2022/04/29 08:35:13;;;;;;;22.77;11.45;;;;;;;18.85;53.49;103170.31;5092127;28;20327;-40
2022/04/29 08:37:42;;;;;;;24.60;11.70;;;;;;;18.84;53.22;103168.59;5091736;28;20131;-40
2022/04/29 08:40:11;;;;;;;21.80;11.63;;;;;;;18.85;53.21;103162.25;5093909;28;20122;-40
2022/04/29 08:42:38;;;;;;;20.38;10.82;;;;;;;18.84;52.75;103173.97;5086992;28;20040;-40
2022/04/29 08:45:10;;;;;;;22.80;11.88;;;;;;;18.83;52.80;103175.81;5092698;28;20079;-40
2022/04/29 08:47:40;;;;;;;19.20;10.25;;;;;;;18.82;52.86;103171.41;5092095;28;20436;-40
2022/04/29 08:50:09;;;;;;;24.85;11.07;;;;;;;18.82;53.03;103160.66;5092447;28;20135;-40
2022/04/29 08:52:36;;;;;;;17.45;9.52;;;;;;;18.81;52.98;103155.38;5091746;28;20060;-40
2022/04/29 09:00:38;;;;;;;19.17;10.18;;;;;;;18.78;52.18;103163.66;5091914;28;20040;-40
2022/04/29 09:03:13;;;;;;;20.85;8.88;;;;;;;18.78;52.42;103158.28;5087683;28;20060;-41
2022/04/29 09:05:41;;;;;;;16.27;8.55;;;;;;;18.78;52.02;103161.84;5089289;28;20040;-40
2022/04/29 09:08:11;;;;;;;13.48;7.85;;;;;;;18.78;52.05;103163.66;5090065;28;20120;-40
2022/04/29 09:10:49;;;;;;;20.40;8.25;;;;;;;18.77;51.96;103156.53;5087190;28;20083;-40
2022/04/29 09:13:26;;;;;;;13.05;7.22;;;;;;;18.77;51.66;103169.97;5087228;28;20372;-40
2022/04/29 09:15:54;;;;;;;15.13;7.85;;;;;;;18.77;51.91;103164.59;5090822;28;20036;-40
2022/04/29 09:18:41;;;;;;;15.27;7.40;;;;;;;18.76;51.83;103168.25;5090254;28;20059;-40
2022/04/29 09:21:14;;;;;;;13.25;7.22;;;;;;;18.77;51.65;103164.59;5090191;28;20150;-40
2022/04/29 09:23:54;;;;;;;13.77;6.30;;;;;;;18.77;51.43;103165.44;5090144;28;20071;-41
2022/04/29 09:26:24;;;;;;;13.10;7.45;;;;;;;18.77;51.35;103168.13;5089651;28;20043;-40
2022/04/29 09:28:52;;;;;;;13.40;6.93;;;;;;;18.78;51.10;103174.41;5090311;28;20123;-40
2022/04/29 09:31:19;;;;;;;13.30;6.63;;;;;;;18.78;51.38;103172.56;5092078;28;20051;-40
2022/04/29 09:34:06;;;;;;;12.23;6.60;;;;;;;18.77;51.36;103178.88;5085903;28;20718;-40
2022/04/29 09:36:32;;;;;;;15.35;6.50;;;;;;;18.80;51.33;103175.16;5091718;28;20127;-41
2022/04/29 09:41:56;;;;;;;9.52;5.75;;;;;;;18.80;51.09;103173.31;5089739;28;20415;-40
2022/04/29 09:44:36;;;;;;;14.73;5.78;;;;;;;18.80;51.30;103173.31;5089491;28;20052;-40
2022/04/29 09:47:14;;;;;;;8.02;5.68;;;;;;;18.81;50.88;103169.66;5087683;28;20777;-40
2022/04/29 09:49:50;;;;;;;9.68;5.45;;;;;;;18.82;50.91;103166.03;5089220;28;20115;-41
2022/04/29 09:52:20;;;;;;;8.68;4.97;;;;;;;18.83;50.96;103172.25;5090341;28;20123;-40
2022/04/29 09:54:47;;;;;;;9.18;5.50;;;;;;;18.84;50.53;103173.97;5090182;28;20125;-40
2022/04/29 09:57:24;;;;;;;10.23;5.50;;;;;;;18.85;50.42;103170.31;5086410;28;20119;-41
2022/04/29 09:59:53;;;;;;;9.70;5.40;;;;;;;18.84;50.79;103168.59;5089383;28;20075;-40
2022/04/29 10:02:24;;;;;;;11.25;4.63;;;;;;;18.86;50.84;103161.31;5091000;28;20101;-40
2022/04/29 10:04:53;;;;;;;13.20;5.15;;;;;;;18.85;50.24;103165.81;5089582;28;20044;-40
2022/04/29 10:07:23;;;;;;;9.15;4.85;;;;;;;18.85;50.15;103160.44;5087572;28;20043;-40
2022/04/29 10:09:55;;;;;;;9.45;4.85;;;;;;;18.86;50.47;103162.19;5089001;28;20036;-40
2022/04/29 10:12:25;;;;;;;8.05;4.78;;;;;;;18.86;50.41;103161.31;5086799;28;20127;-40
2022/04/29 10:14:59;;;;;;;6.38;4.05;;;;;;;18.88;49.96;103159.38;5088236;28;20419;-40
2022/04/29 10:23:11;;;;;;;7.85;4.15;;;;;;;18.91;50.61;103159.19;5080316;28;20040;-41
2022/04/29 10:25:46;;;;;;;7.47;3.97;;;;;;;18.93;50.07;103149.16;5086094;28;20094;-41
2022/04/29 10:28:23;;;;;;;7.20;3.90;;;;;;;18.94;50.33;103146.41;5086597;28;20455;-40
2022/04/29 10:31:00;;;;;;;5.47;3.60;;;;;;;18.95;50.66;103148.13;5086572;28;20127;-41
2022/04/29 10:33:27;;;;;;;6.43;4.00;;;;;;;18.98;49.86;103149.75;5080993;28;20131;-41
2022/04/29 10:36:06;;;;;;;6.45;3.42;;;;;;;18.98;50.24;103147.91;5082985;28;20047;-40
2022/04/29 10:38:39;;;;;;;5.68;3.45;;;;;;;19.01;50.06;103141.44;5085287;28;20044;-41
2022/04/29 10:41:24;;;;;;;10.23;3.95;;;;;;;19.02;49.55;103145.03;5088407;28;20080;-40
2022/04/29 10:43:51;;;;;;;8.18;3.70;;;;;;;19.04;49.63;103153.84;5084806;28;20435;-40
2022/04/29 10:46:27;;;;;;;7.30;3.83;;;;;;;19.04;49.36;103159.22;5080090;28;20043;-41
2022/04/29 10:48:54;;;;;;;5.65;3.47;;;;;;;19.07;49.13;103159.00;5082376;28;20327;-41
2022/04/29 10:51:27;;;;;;;4.95;3.03;;;;;;;19.05;49.55;103158.22;5083406;28;20051;-40
2022/04/29 10:53:55;;;;;;;7.15;3.22;;;;;;;19.07;49.09;103150.94;5086817;28;20127;-41
2022/04/29 10:56:31;;;;;;;8.18;3.47;;;;;;;19.06;48.71;103147.41;5087948;28;20083;-41
2022/04/29 10:59:03;;;;;;;8.23;3.53;;;;;;;19.07;48.94;103154.50;5085111;28;20045;-41
2022/04/29 11:01:33;;;;;;;5.75;3.13;;;;;;;19.06;49.08;103144.72;5090419;28;20370;-41
2022/04/29 11:04:04;;;;;;;6.68;3.03;;;;;;;19.07;48.55;103148.25;5088196;28;20304;-40
2022/04/29 11:06:42;;;;;;;5.80;2.80;;;;;;;19.06;48.54;103142.03;5086748;28;20052;-40
2022/04/29 11:09:28;;;;;;;8.93;3.65;;;;;;;19.07;48.95;103140.19;5088063;28;20052;-40
2022/04/29 11:11:56;;;;;;;5.82;2.92;;;;;;;19.08;48.56;103132.00;5083790;28;20370;-40
2022/04/29 11:14:23;;;;;;;4.68;3.03;;;;;;;19.07;48.55;103138.34;5086711;28;20045;-40
2022/04/29 11:16:52;;;;;;;4.38;3.10;;;;;;;19.08;48.58;103141.91;5088140;28;20131;-41
2022/04/29 11:19:21;;;;;;;7.00;3.15;;;;;;;19.08;48.48;103139.22;5083736;28;20072;-41
2022/04/29 11:24:49;;;;;;;4.53;2.60;;;;;;;19.11;48.29;103147.06;5087298;28;20040;-41
2022/04/29 11:27:27;;;;;;;7.07;3.00;;;;;;;19.10;48.41;103143.53;5085371;28;20032;-41
2022/04/29 11:30:01;;;;;;;6.95;3.20;;;;;;;19.11;47.80;103147.06;5085924;28;20044;-41
2022/04/29 11:32:29;;;;;;;8.77;3.30;;;;;;;19.11;48.30;103139.88;5087922;28;20051;-41
2022/04/29 11:35:00;;;;;;;3.78;2.38;;;;;;;19.12;48.18;103140.72;5084725;28;20093;-41
2022/04/29 11:37:35;;;;;;;3.90;2.30;;;;;;;19.12;48.40;103135.34;5086903;28;20052;-40
2022/04/29 11:40:05;;;;;;;5.22;2.75;;;;;;;19.13;48.25;103132.56;5085912;28;20062;-41
2022/04/29 11:42:33;;;;;;;4.70;2.28;;;;;;;19.16;48.37;103136.88;5090979;28;20323;-41
2022/04/29 11:45:06;;;;;;;5.18;3.05;;;;;;;19.15;48.40;103138.69;5089410;28;20075;-42
2022/04/29 11:47:33;;;;;;;6.22;2.70;;;;;;;19.17;48.01;103136.75;5083066;28;20364;-42
2022/04/29 11:50:03;;;;;;;6.15;2.63;;;;;;;19.18;48.18;103130.44;5086229;28;20078;-41
2022/04/29 11:52:32;;;;;;;6.15;3.05;;;;;;;19.20;48.30;103146.44;5084308;28;20147;-41
2022/04/29 11:55:00;;;;;;;5.28;2.80;;;;;;;19.22;47.69;103144.53;5087819;28;20143;-41
2022/04/29 11:57:30;;;;;;;3.60;2.30;;;;;;;19.23;47.93;103136.34;5088515;28;20140;-42
2022/04/29 11:59:57;;;;;;;5.20;2.55;;;;;;;19.26;47.99;103140.66;5087323;28;20044;-42
2022/04/29 12:02:27;;;;;;;5.60;2.58;;;;;;;19.29;48.43;103129.66;5085385;28;20476;-41